Time;durP1;ratioP1;P1;durP2;ratioP2;P2;SDS_P1;SDS_P2;PMS_P1;PMS_P2;Temp;Humidity;BMP_temperature;BMP_pressure;BME280_temperature;BME280_humidity;BME280_pressure;Samples;Min_cycle;Max_cycle;Signal;HPM_P1;HPM_P2
2022/01/20 00:04:11;;;;;;;;;;;;;;;2.33;48.92;100362.31;4372477;32;20005;-74
2022/01/20 00:23:43;;;;;;;;;;;;;;;2.38;48.24;100374.47;4374109;32;20043;-73
2022/01/20 00:26:00;;;;;;;;;;;;;;;2.29;48.88;100378.22;4385838;32;19975;-73
2022/01/20 00:28:44;;;;;;;;;;;;;;;2.34;48.34;100360.62;4385698;32;19997;-73
2022/01/20 00:38:43;;;;;;;;;;;;;;;2.28;48.21;100375.59;4385919;32;20045;-73
2022/01/20 00:41:15;;;;;;;;;;;;;;;2.27;48.16;100376.41;4386133;32;20291;-73
2022/01/20 00:43:42;;;;;;;;;;;;;;;1.98;49.11;100375.59;4376558;32;19982;-73
2022/01/20 00:46:09;;;;;;;;;;;;;;;2.09;49.12;100374.53;4384644;32;20042;-73
2022/01/20 00:48:36;;;;;;;;;;;;;;;2.05;49.28;100376.84;4385847;32;19999;-73
2022/01/20 00:51:03;;;;;;;;;;;;;;;2.29;48.42;100380.78;4386215;32;20034;-73
2022/01/20 00:53:30;;;;;;;;;;;;;;;2.21;48.27;100384.59;4375995;32;19979;-73
2022/01/20 00:55:56;;;;;;;;;;;;;;;2.15;48.53;100383.34;4384478;32;19994;-74
2022/01/20 00:58:23;;;;;;;;;;;;;;;2.40;47.97;100383.09;3776541;32;10031025;-73
2022/01/20 01:00:50;;;;;;;;;;;;;;;2.31;48.20;100376.66;4387291;32;19966;-73
2022/01/20 01:03:17;;;;;;;;;;;;;;;2.38;47.98;100382.13;4400767;32;20042;-73
2022/01/20 01:06:07;;;;;;;;;;;;;;;2.18;48.37;100389.53;4390067;32;20840;-73
2022/01/20 01:08:33;;;;;;;;;;;;;;;2.14;48.48;100382.47;4319297;32;20030;-73
2022/01/20 01:11:01;;;;;;;;;;;;;;;2.17;48.30;100380.09;4384108;32;19995;-73
2022/01/20 01:13:29;;;;;;;;;;;;;;;2.22;48.29;100376.13;4378530;32;19993;-74
2022/01/20 01:15:56;;;;;;;;;;;;;;;2.36;48.22;100378.59;4370790;32;20333;-73
2022/01/20 01:21:27;;;;;;;;;;;;;;;2.14;48.96;100386.69;4371066;32;20336;-73
2022/01/20 01:23:54;;;;;;;;;;;;;;;2.30;48.26;100385.13;4379093;32;20423;-73
2022/01/20 01:26:24;;;;;;;;;;;;;;;2.20;48.28;100382.84;4383916;32;20022;-73
2022/01/20 01:28:51;;;;;;;;;;;;;;;2.04;49.44;100369.94;4378476;32;19995;-73
2022/01/20 01:34:02;;;;;;;;;;;;;;;2.35;49.22;100354.72;4372502;32;20310;-73
2022/01/20 01:36:39;;;;;;;;;;;;;;;2.17;50.02;100349.47;4356419;32;20638;-73
2022/01/20 01:39:06;;;;;;;;;;;;;;;2.49;49.64;100345.28;4369628;32;19991;-73
2022/01/20 01:41:36;;;;;;;;;;;;;;;2.52;49.59;100341.25;4378958;32;20025;-74
2022/01/20 01:44:07;;;;;;;;;;;;;;;2.72;49.24;100333.81;4372365;32;19990;-73
2022/01/20 01:46:35;;;;;;;;;;;;;;;2.57;49.98;100333.81;4393986;32;19986;-73
2022/01/20 01:49:02;;;;;;;;;;;;;;;2.92;48.75;100312.75;4385924;32;19986;-73
2022/01/20 01:51:29;;;;;;;;;;;;;;;2.75;49.24;100304.19;4391635;32;19991;-73
2022/01/20 01:53:56;;;;;;;;;;;;;;;2.74;49.85;100311.75;4388298;32;19982;-73
2022/01/20 01:56:24;;;;;;;;;;;;;;;2.74;50.05;100297.31;4385684;32;19991;-73
2022/01/20 01:58:51;;;;;;;;;;;;;;;2.82;50.17;100304.50;4373607;32;20690;-74
2022/01/20 02:01:18;;;;;;;;;;;;;;;2.78;50.42;100281.34;4392595;32;20034;-73
2022/01/20 02:03:57;;;;;;;;;;;;;;;2.68;50.87;100285.84;4371880;32;19998;-73
2022/01/20 02:20:17;;;;;;;;;;;;;;;2.92;50.89;100245.41;4352906;32;20086;-73
2022/01/20 02:22:44;;;;;;;;;;;;;;;2.90;51.12;100246.97;4376243;32;20032;-73
2022/01/20 02:25:19;;;;;;;;;;;;;;;3.09;50.74;100244.59;4384722;32;19986;-73
2022/01/20 02:27:46;;;;;;;;;;;;;;;3.13;50.72;100240.53;4351371;32;20041;-73
2022/01/20 02:30:17;;;;;;;;;;;;;;;3.12;50.82;100234.53;4371619;32;19991;-74
2022/01/20 02:32:51;;;;;;;;;;;;;;;3.23;50.26;100225.75;4377049;32;20376;-73
2022/01/20 02:35:18;;;;;;;;;;;;;;;3.10;50.59;100225.91;4370247;32;20074;-73
2022/01/20 02:37:47;;;;;;;;;;;;;;;3.21;50.04;100229.88;4370427;32;20265;-74
2022/01/20 02:45:40;;;;;;;;;;;;;;;3.06;50.48;100231.66;4370033;32;20050;-73
2022/01/20 02:48:07;;;;;;;;;;;;;;;3.03;50.71;100226.38;4372618;32;19983;-73
2022/01/20 02:50:34;;;;;;;;;;;;;;;3.18;50.19;100214.38;4362630;32;20013;-74
2022/01/20 02:53:01;;;;;;;;;;;;;;;3.32;49.87;100227.00;4370059;32;19987;-73
2022/01/20 02:55:28;;;;;;;;;;;;;;;3.22;50.20;100211.19;4377226;32;20367;-73
2022/01/20 02:57:55;;;;;;;;;;;;;;;3.31;49.41;100215.00;4371764;32;19986;-73
2022/01/20 03:00:22;;;;;;;;;;;;;;;3.24;49.90;100208.72;4358078;32;20394;-74
2022/01/20 03:02:49;;;;;;;;;;;;;;;3.12;49.89;100208.94;4368924;32;20037;-74
2022/01/20 03:05:16;;;;;;;;;;;;;;;3.33;49.50;100208.31;4368598;32;19986;-73
2022/01/20 03:07:45;;;;;;;;;;;;;;;3.03;50.01;100198.25;4370275;32;20065;-73
2022/01/20 03:10:13;;;;;;;;;;;;;;;3.13;49.75;100179.16;4375504;32;20080;-73
2022/01/20 03:12:40;;;;;;;;;;;;;;;3.37;49.42;100199.97;4383265;32;20005;-73
2022/01/20 03:15:07;;;;;;;;;;;;;;;3.31;49.13;100189.44;4371096;32;19999;-73
2022/01/20 03:17:34;;;;;;;;;;;;;;;3.30;49.23;100187.69;4378713;32;20155;-72
2022/01/20 03:20:02;;;;;;;;;;;;;;;3.11;49.49;100176.50;4371543;32;20081;-73
2022/01/20 03:22:28;;;;;;;;;;;;;;;3.11;49.49;100181.62;4370498;32;19971;-73
2022/01/20 03:24:57;;;;;;;;;;;;;;;2.99;49.62;100176.75;4375556;32;21108;-73
2022/01/20 03:27:24;;;;;;;;;;;;;;;3.11;49.41;100171.41;4371756;32;20414;-73
2022/01/20 03:29:51;;;;;;;;;;;;;;;3.05;49.47;100168.53;4371904;32;19975;-74
2022/01/20 03:32:18;;;;;;;;;;;;;;;3.09;49.29;100157.62;4377932;32;20026;-73
2022/01/20 03:34:45;;;;;;;;;;;;;;;3.10;49.18;100158.53;4368220;32;19987;-75
2022/01/20 03:37:13;;;;;;;;;;;;;;;3.21;49.04;100157.38;4389245;32;19990;-73
2022/01/20 03:39:41;;;;;;;;;;;;;;;3.19;48.79;100149.66;4365294;32;19990;-74
2022/01/20 03:42:08;;;;;;;;;;;;;;;3.05;48.98;100154.88;4393041;32;19985;-73
2022/01/20 03:44:34;;;;;;;;;;;;;;;3.08;48.69;100150.78;4384810;32;20041;-73
2022/01/20 03:47:03;;;;;;;;;;;;;;;3.05;48.66;100140.38;4384572;32;20678;-73
2022/01/20 03:49:38;;;;;;;;;;;;;;;2.90;48.83;100144.72;4392527;32;20000;-73
2022/01/20 03:52:05;;;;;;;;;;;;;;;2.83;48.92;100146.09;4385129;32;20355;-73
2022/01/20 03:54:33;;;;;;;;;;;;;;;2.76;48.92;100141.47;4384407;32;20057;-72
2022/01/20 03:57:02;;;;;;;;;;;;;;;2.78;48.45;100143.31;4384241;32;19986;-73
2022/01/20 03:59:31;;;;;;;;;;;;;;;2.73;48.95;100131.94;4384706;32;20004;-73
2022/01/20 04:01:58;;;;;;;;;;;;;;;2.77;48.56;100133.84;4389856;32;20032;-74
2022/01/20 04:04:29;;;;;;;;;;;;;;;2.78;48.78;100125.41;4386667;32;20005;-74
2022/01/20 04:06:58;;;;;;;;;;;;;;;2.66;48.82;100135.00;4370402;32;19994;-73
2022/01/20 04:09:25;;;;;;;;;;;;;;;2.46;49.65;100130.53;4386432;32;20050;-74
2022/01/20 04:11:52;;;;;;;;;;;;;;;2.40;49.74;100137.88;4391095;32;20004;-73
2022/01/20 04:14:20;;;;;;;;;;;;;;;2.45;49.31;100123.62;4384416;32;19994;-73
2022/01/20 04:17:15;;;;;;;;;;;;;;;2.51;49.35;100134.19;4386390;32;20065;-74
2022/01/20 04:19:35;;;;;;;;;;;;;;;2.55;49.31;100125.88;4394091;32;19998;-73
2022/01/20 04:22:02;;;;;;;;;;;;;;;2.59;49.25;100130.38;4391756;32;19974;-74
2022/01/20 04:24:29;;;;;;;;;;;;;;;2.71;48.47;100125.00;4370063;32;20003;-73
2022/01/20 04:26:58;;;;;;;;;;;;;;;2.53;49.01;100127.50;4383656;32;19986;-74
2022/01/20 04:29:25;;;;;;;;;;;;;;;2.62;48.75;100133.09;4371509;32;19978;-73
2022/01/20 04:31:52;;;;;;;;;;;;;;;2.47;49.00;100132.28;4385048;32;20038;-72
2022/01/20 04:34:19;;;;;;;;;;;;;;;2.55;48.97;100129.34;4386512;32;20021;-73
2022/01/20 04:36:49;;;;;;;;;;;;;;;2.40;49.71;100130.19;4390743;32;20415;-74
2022/01/20 04:39:19;;;;;;;;;;;;;;;2.42;49.19;100133.69;4384692;32;19983;-73
2022/01/20 04:41:47;;;;;;;;;;;;;;;2.43;49.15;100135.47;4378219;32;20030;-73
2022/01/20 04:44:31;;;;;;;;;;;;;;;2.51;48.97;100149.50;4372514;32;20006;-73
2022/01/20 04:47:28;;;;;;;;;;;;;;;2.47;48.78;100150.16;4386429;32;20004;-73
2022/01/20 04:58:08;;;;;;;;;;;;;;;2.30;49.39;100155.25;4385940;32;20036;-74
2022/01/20 05:00:35;;;;;;;;;;;;;;;2.46;48.59;100151.84;4371516;32;19998;-74
2022/01/20 05:03:06;;;;;;;;;;;;;;;2.58;48.41;100145.59;4379333;32;19985;-73
2022/01/20 05:05:33;;;;;;;;;;;;;;;2.47;48.79;100137.38;4386157;32;20781;-73
2022/01/20 05:08:01;;;;;;;;;;;;;;;2.22;49.05;100130.06;4373463;32;20006;-73
2022/01/20 05:10:30;;;;;;;;;;;;;;;2.37;48.51;100140.25;4394690;32;19986;-74
2022/01/20 05:15:25;;;;;;;;;;;;;;;2.29;49.09;100135.59;4399737;32;20032;-73
2022/01/20 05:17:52;;;;;;;;;;;;;;;2.24;48.82;100128.50;4392967;32;19990;-75
2022/01/20 05:20:19;;;;;;;;;;;;;;;2.07;49.24;100125.00;4372007;32;20092;-75
2022/01/20 05:22:46;;;;;;;;;;;;;;;2.35;48.59;100126.50;4386065;32;20339;-75
2022/01/20 05:25:17;;;;;;;;;;;;;;;2.24;49.03;100144.69;4372836;32;20575;-72
2022/01/20 05:27:44;;;;;;;;;;;;;;;2.03;49.58;100138.41;4377522;32;20371;-73
2022/01/20 05:30:13;;;;;;;;;;;;;;;2.26;48.88;100143.09;4386739;32;19986;-73
2022/01/20 05:32:42;;;;;;;;;;;;;;;2.27;48.99;100129.53;4392100;32;20010;-73
2022/01/20 05:35:09;;;;;;;;;;;;;;;2.24;49.84;100123.38;4390988;32;20316;-72
2022/01/20 05:37:37;;;;;;;;;;;;;;;2.41;49.73;100124.28;4386112;32;20017;-73
2022/01/20 05:40:04;;;;;;;;;;;;;;;2.41;49.73;100137.06;4385429;32;19978;-73
2022/01/20 05:42:32;;;;;;;;;;;;;;;2.57;49.90;100129.41;4394346;32;20350;-73
2022/01/20 05:44:59;;;;;;;;;;;;;;;2.26;50.94;100127.75;4385826;32;19971;-72
2022/01/20 05:47:30;;;;;;;;;;;;;;;2.37;50.46;100130.03;4386011;32;19986;-73
2022/01/20 05:49:59;;;;;;;;;;;;;;;2.47;51.13;100122.06;4385461;32;19986;-73
2022/01/20 05:52:26;;;;;;;;;;;;;;;2.47;51.56;100122.06;4394524;32;19971;-73
2022/01/20 05:54:53;;;;;;;;;;;;;;;2.44;51.66;100122.75;4385509;32;20002;-73
2022/01/20 05:57:20;;;;;;;;;;;;;;;2.52;51.36;100120.59;4385599;32;20066;-73
2022/01/20 05:59:48;;;;;;;;;;;;;;;2.59;51.30;100117.59;4386230;32;20021;-81
2022/01/20 06:02:32;;;;;;;;;;;;;;;2.49;52.07;100130.66;4393530;32;19974;-73
2022/01/20 06:04:59;;;;;;;;;;;;;;;2.45;52.06;100133.84;4385850;32;19997;-73
2022/01/20 06:07:27;;;;;;;;;;;;;;;2.64;50.93;100136.56;4389188;32;19994;-73
2022/01/20 06:09:54;;;;;;;;;;;;;;;2.71;50.55;100128.47;4384090;32;20441;-73
2022/01/20 06:12:21;;;;;;;;;;;;;;;2.58;51.67;100118.37;4385613;32;19994;-73
2022/01/20 06:14:48;;;;;;;;;;;;;;;2.83;51.63;100127.31;4384238;32;20350;-73
2022/01/20 06:17:14;;;;;;;;;;;;;;;2.64;52.36;100128.03;4371594;32;20042;-73
2022/01/20 06:19:42;;;;;;;;;;;;;;;2.91;51.61;100123.47;4394416;32;19994;-73
2022/01/20 06:22:13;;;;;;;;;;;;;;;2.95;51.44;100122.84;4385480;32;20038;-72
2022/01/20 06:24:40;;;;;;;;;;;;;;;2.86;51.80;100122.34;4385834;32;20351;-73
2022/01/20 06:27:07;;;;;;;;;;;;;;;2.75;52.42;100111.59;4386280;32;20033;-73
2022/01/20 06:29:34;;;;;;;;;;;;;;;2.88;51.96;100120.78;4393038;32;19994;-73
2022/01/20 06:32:01;;;;;;;;;;;;;;;2.99;51.83;100119.63;4393418;32;20036;-72
2022/01/20 06:34:28;;;;;;;;;;;;;;;3.09;51.62;100121.84;4387346;32;20436;-72
2022/01/20 06:36:55;;;;;;;;;;;;;;;3.09;51.45;100116.72;4391888;32;20016;-72
2022/01/20 06:39:24;;;;;;;;;;;;;;;2.91;51.89;100120.94;4386470;32;20014;-73
2022/01/20 06:41:51;;;;;;;;;;;;;;;3.13;51.40;100128.87;4393246;32;20009;-73
2022/01/20 06:44:21;;;;;;;;;;;;;;;2.97;51.88;100131.47;4369966;32;20005;-72
2022/01/20 06:46:48;;;;;;;;;;;;;;;3.09;51.76;100121.84;4386695;32;19998;-72
2022/01/20 06:49:17;;;;;;;;;;;;;;;3.15;51.87;100122.16;4383320;32;19994;-72
2022/01/20 06:51:45;;;;;;;;;;;;;;;3.18;52.65;100117.19;4394316;32;20000;-72
2022/01/20 06:54:12;;;;;;;;;;;;;;;3.42;53.23;100114.09;4400238;32;20782;-71
2022/01/20 06:56:41;;;;;;;;;;;;;;;3.53;53.43;100109.50;4385935;32;20000;-71
2022/01/20 06:59:12;;;;;;;;;;;;;;;3.55;53.68;100113.88;4395583;32;19982;-72
2022/01/20 07:01:40;;;;;;;;;;;;;;;3.54;54.15;100112.09;4370257;32;20648;-73
2022/01/20 07:04:13;;;;;;;;;;;;;;;3.61;54.00;100101.37;4370919;32;20005;-72
2022/01/20 07:06:40;;;;;;;;;;;;;;;3.81;53.66;100096.34;4375668;32;19986;-73
2022/01/20 07:09:11;;;;;;;;;;;;;;;3.85;53.66;100093.09;4384506;32;19986;-72
2022/01/20 07:11:39;;;;;;;;;;;;;;;3.94;53.42;100078.16;4370700;32;20370;-72
2022/01/20 07:14:08;;;;;;;;;;;;;;;3.79;54.18;100088.56;4384530;32;19986;-72
2022/01/20 07:16:34;;;;;;;;;;;;;;;4.09;53.56;100085.69;4384735;32;20073;-73
2022/01/20 07:19:01;;;;;;;;;;;;;;;3.90;54.16;100082.28;4393016;32;20036;-73
2022/01/20 07:21:28;;;;;;;;;;;;;;;4.11;53.78;100077.25;4384780;32;19982;-73
2022/01/20 07:23:56;;;;;;;;;;;;;;;4.18;53.91;100079.31;4390499;32;20038;-73
2022/01/20 07:26:22;;;;;;;;;;;;;;;4.18;54.12;100069.06;4393306;32;20004;-73
2022/01/20 07:28:51;;;;;;;;;;;;;;;4.20;54.05;100066.53;4370802;32;20077;-76
2022/01/20 07:31:22;;;;;;;;;;;;;;;4.24;53.97;100062.44;4388721;32;19987;-72
2022/01/20 07:33:50;;;;;;;;;;;;;;;4.27;53.92;100057.44;4388069;32;20368;-72
2022/01/20 07:36:17;;;;;;;;;;;;;;;4.39;53.69;100061.44;4370820;32;20407;-73
2022/01/20 07:38:44;;;;;;;;;;;;;;;4.54;53.30;100063.78;4371086;32;20006;-73
2022/01/20 07:41:11;;;;;;;;;;;;;;;4.42;53.68;100068.38;4384642;32;20021;-72
2022/01/20 07:43:38;;;;;;;;;;;;;;;4.38;53.92;100061.37;4384922;32;20070;-72
2022/01/20 07:46:08;;;;;;;;;;;;;;;4.00;55.28;100057.97;4383049;32;20001;-72
2022/01/20 07:48:36;;;;;;;;;;;;;;;4.32;54.54;100061.97;4383844;32;20051;-73
2022/01/20 07:51:05;;;;;;;;;;;;;;;4.49;54.39;100052.44;4391494;32;20013;-72
2022/01/20 07:53:35;;;;;;;;;;;;;;;4.71;53.70;100050.81;4382540;32;20017;-72
2022/01/20 07:56:03;;;;;;;;;;;;;;;4.77;53.69;100051.09;4384318;32;20010;-72
2022/01/20 07:58:30;;;;;;;;;;;;;;;4.91;53.35;100052.53;4383338;32;20060;-71
2022/01/20 08:00:57;;;;;;;;;;;;;;;4.81;54.41;100047.84;4394788;32;20040;-78
2022/01/20 08:03:26;;;;;;;;;;;;;;;5.05;53.60;100054.00;4379246;32;20374;-71
2022/01/20 08:05:55;;;;;;;;;;;;;;;5.21;53.24;100054.63;4377057;32;21137;-71
2022/01/20 08:08:24;;;;;;;;;;;;;;;5.22;53.63;100058.94;4376961;32;20347;-72
2022/01/20 08:10:53;;;;;;;;;;;;;;;5.40;53.34;100056.25;4377112;32;19978;-75
2022/01/20 08:13:19;;;;;;;;;;;;;;;5.39;53.36;100059.62;4392732;32;20055;-73
2022/01/20 08:15:46;;;;;;;;;;;;;;;5.40;53.32;100057.13;4392880;32;20320;-72
2022/01/20 08:18:16;;;;;;;;;;;;;;;5.49;53.07;100062.62;4392458;32;19997;-79
2022/01/20 08:20:45;;;;;;;;;;;;;;;5.37;53.34;100063.00;4393668;32;19978;-73
2022/01/20 08:23:13;;;;;;;;;;;;;;;5.58;52.78;100068.16;4368581;32;19990;-73
2022/01/20 08:25:41;;;;;;;;;;;;;;;5.66;52.75;100057.28;4392165;32;19986;-73
2022/01/20 08:28:09;;;;;;;;;;;;;;;5.44;53.84;100060.69;4390059;32;20097;-73
2022/01/20 08:30:38;;;;;;;;;;;;;;;5.78;52.97;100058.63;4391800;32;19985;-73
2022/01/20 08:33:05;;;;;;;;;;;;;;;5.86;52.83;100058.94;4392509;32;19999;-74
2022/01/20 08:35:33;;;;;;;;;;;;;;;5.83;52.92;100063.94;4372378;32;20036;-73
2022/01/20 08:38:03;;;;;;;;;;;;;;;5.95;52.54;100069.59;4394005;32;20006;-71
2022/01/20 08:40:31;;;;;;;;;;;;;;;6.04;51.72;100059.66;4386123;32;20004;-72
2022/01/20 08:42:58;;;;;;;;;;;;;;;6.14;51.79;100060.00;4385730;32;20001;-71
2022/01/20 08:45:27;;;;;;;;;;;;;;;6.05;51.61;100061.41;4390866;32;20021;-74
2022/01/20 08:47:56;;;;;;;;;;;;;;;5.95;52.13;100041.31;4394169;32;19982;-72
2022/01/20 08:50:24;;;;;;;;;;;;;;;6.19;52.38;100045.62;4386256;32;19989;-72
2022/01/20 08:52:51;;;;;;;;;;;;;;;6.18;52.19;100042.16;4393606;32;20061;-78
2022/01/20 08:55:19;;;;;;;;;;;;;;;6.15;51.95;100038.62;4372686;32;20005;-71
2022/01/20 08:57:47;;;;;;;;;;;;;;;6.04;52.31;100039.09;4387678;32;19986;-71
2022/01/20 09:00:14;;;;;;;;;;;;;;;6.34;51.05;100038.47;4400758;32;19970;-71
2022/01/20 09:02:43;;;;;;;;;;;;;;;6.25;51.15;100039.03;4375188;32;20004;-72
2022/01/20 09:05:10;;;;;;;;;;;;;;;6.20;51.47;100049.97;4397492;32;20459;-72
2022/01/20 09:07:39;;;;;;;;;;;;;;;6.17;51.72;100052.41;4386527;32;20874;-72
2022/01/20 09:10:08;;;;;;;;;;;;;;;6.20;51.36;100047.37;4381392;32;20017;-72
2022/01/20 09:15:28;;;;;;;;;;;;;;;6.29;51.65;100055.44;4388272;32;19982;-74
2022/01/20 09:18:01;;;;;;;;;;;;;;;6.27;52.16;100062.22;4378833;32;19997;-73
2022/01/20 09:20:29;;;;;;;;;;;;;;;6.56;51.26;100059.81;4384701;32;19986;-72
2022/01/20 09:22:57;;;;;;;;;;;;;;;6.71;51.08;100065.50;4387873;32;19986;-72
2022/01/20 09:25:24;;;;;;;;;;;;;;;6.77;51.14;100065.72;4392195;32;19986;-71
2022/01/20 09:27:51;;;;;;;;;;;;;;;6.73;51.03;100058.69;4385792;32;19994;-71
2022/01/20 09:30:19;;;;;;;;;;;;;;;6.85;50.87;100063.41;4387646;32;20373;-72
2022/01/20 09:32:57;;;;;;;;;;;;;;;6.74;51.00;100060.47;4393455;32;20042;-72
2022/01/20 09:35:32;;;;;;;;;;;;;;;6.86;50.49;100060.00;4381135;32;20058;-71
2022/01/20 09:37:59;;;;;;;;;;;;;;;6.98;50.27;100061.28;4397087;32;19994;-72
2022/01/20 09:40:28;;;;;;;;;;;;;;;6.96;50.41;100057.81;4400357;32;20311;-71
2022/01/20 09:42:56;;;;;;;;;;;;;;;7.07;50.55;100054.72;4395569;32;20038;-71
2022/01/20 09:45:23;;;;;;;;;;;;;;;7.11;50.89;100054.00;4398614;32;20040;-71
2022/01/20 09:47:50;;;;;;;;;;;;;;;7.25;50.77;100060.47;4375952;32;19982;-72
2022/01/20 09:50:19;;;;;;;;;;;;;;;7.11;50.53;100054.00;4385694;32;20089;-72
2022/01/20 09:52:48;;;;;;;;;;;;;;;7.11;50.18;100056.56;4391605;32;20061;-73
2022/01/20 09:55:18;;;;;;;;;;;;;;;7.30;50.30;100052.91;4385822;32;19986;-72
2022/01/20 09:57:45;;;;;;;;;;;;;;;7.16;50.44;100055.03;4376529;32;19994;-72
2022/01/20 10:00:14;;;;;;;;;;;;;;;7.20;50.52;100046.56;4386052;32;20021;-72
2022/01/20 10:02:55;;;;;;;;;;;;;;;7.37;50.51;100045.44;4385153;32;19986;-72
2022/01/20 10:05:34;;;;;;;;;;;;;;;7.58;49.90;100041.78;4385322;32;20817;-73
2022/01/20 10:08:03;;;;;;;;;;;;;;;7.34;50.15;100040.19;4385820;32;20033;-73
2022/01/20 10:10:36;;;;;;;;;;;;;;;7.33;50.99;100047.84;4373357;32;20356;-72
2022/01/20 10:13:06;;;;;;;;;;;;;;;7.29;51.34;100041.72;4378138;32;19999;-72
2022/01/20 10:15:33;;;;;;;;;;;;;;;7.45;51.02;100046.53;4385643;32;19990;-71
2022/01/20 10:18:11;;;;;;;;;;;;;;;7.23;52.62;100046.69;4392431;32;19994;-71
2022/01/20 10:20:58;;;;;;;;;;;;;;;7.16;53.96;100039.59;4371601;32;19989;-71
2022/01/20 10:23:32;;;;;;;;;;;;;;;7.05;55.44;100030.63;4391706;32;19983;-70
2022/01/20 10:26:07;;;;;;;;;;;;;;;6.26;59.58;100029.63;4387505;32;20336;-71
2022/01/20 10:28:46;;;;;;;;;;;;;;;6.92;58.15;100019.94;4379929;32;19978;-71
2022/01/20 10:31:16;;;;;;;;;;;;;;;6.66;59.12;100021.59;4393986;32;19985;-71
2022/01/20 10:33:43;;;;;;;;;;;;;;;6.52;60.80;100010.84;4384390;32;20001;-71
2022/01/20 10:36:10;;;;;;;;;;;;;;;6.94;59.18;100010.56;4391628;32;20004;-71
2022/01/20 10:38:47;;;;;;;;;;;;;;;6.76;60.03;100007.34;4397748;32;20074;-71
2022/01/20 10:41:14;;;;;;;;;;;;;;;6.74;60.20;100006.44;4391050;32;19974;-71
2022/01/20 10:43:41;;;;;;;;;;;;;;;6.59;60.95;100000.78;4386079;32;19991;-71
2022/01/20 10:46:16;;;;;;;;;;;;;;;6.66;61.29;99998.44;4395101;32;20315;-71
2022/01/20 10:48:44;;;;;;;;;;;;;;;6.37;62.20;100002.59;4399879;32;20442;-76
2022/01/20 10:51:17;;;;;;;;;;;;;;;6.35;63.05;99993.97;4386303;32;19989;-71
2022/01/20 10:53:45;;;;;;;;;;;;;;;6.64;61.82;99981.25;4400187;32;20006;-75
2022/01/20 10:56:14;;;;;;;;;;;;;;;6.04;64.47;99980.00;4373885;32;19994;-71
2022/01/20 10:58:41;;;;;;;;;;;;;;;6.11;64.50;99978.53;4400061;32;21453;-72
2022/01/20 11:01:14;;;;;;;;;;;;;;;6.47;63.37;99973.78;4395251;32;19986;-72
2022/01/20 11:03:41;;;;;;;;;;;;;;;6.28;64.41;99971.41;4387032;32;20324;-72
2022/01/20 11:06:09;;;;;;;;;;;;;;;6.01;65.49;99956.78;4385796;32;19990;-72
2022/01/20 11:08:40;;;;;;;;;;;;;;;6.17;65.20;99947.03;4377986;32;19986;-71
2022/01/20 11:11:08;;;;;;;;;;;;;;;6.26;64.88;99939.66;4372085;32;19987;-71
2022/01/20 11:13:36;;;;;;;;;;;;;;;6.20;64.74;99937.75;4384710;32;19994;-73
2022/01/20 11:16:03;;;;;;;;;;;;;;;5.71;65.83;99945.31;4384623;32;19994;-71
2022/01/20 11:18:30;;;;;;;;;;;;;;;5.78;65.50;99947.31;4371507;32;19990;-71
2022/01/20 11:21:05;;;;;;;;;;;;;;;6.18;63.80;99953.91;4386075;32;20247;-72
2022/01/20 11:23:38;;;;;;;;;;;;;;;5.95;64.60;99940.25;4393404;32;19995;-70
2022/01/20 11:26:11;;;;;;;;;;;;;;;6.37;62.97;99946.03;4398261;32;19989;-71
2022/01/20 11:28:39;;;;;;;;;;;;;;;6.22;63.62;99948.97;4384188;32;20004;-71
2022/01/20 11:31:08;;;;;;;;;;;;;;;6.25;63.58;99932.75;4387534;32;20319;-71
2022/01/20 11:33:36;;;;;;;;;;;;;;;6.07;63.95;99919.28;4389639;32;19997;-71
2022/01/20 11:36:03;;;;;;;;;;;;;;;6.16;63.67;99901.59;4393049;32;20162;-71
2022/01/20 11:38:46;;;;;;;;;;;;;;;6.49;62.30;99884.75;4369776;32;20864;-71
2022/01/20 11:41:14;;;;;;;;;;;;;;;6.51;61.96;99883.09;4384311;32;20723;-72
2022/01/20 11:43:42;;;;;;;;;;;;;;;6.74;61.14;99880.41;4386141;32;19978;-73
2022/01/20 11:46:15;;;;;;;;;;;;;;;6.56;60.92;99875.53;4391871;32;19982;-72
2022/01/20 11:48:49;;;;;;;;;;;;;;;6.37;61.75;99868.03;4388146;32;20006;-72
2022/01/20 11:51:18;;;;;;;;;;;;;;;6.26;62.01;99873.69;4386389;32;19974;-72
2022/01/20 11:53:54;;;;;;;;;;;;;;;6.39;61.81;99872.41;4386363;32;20028;-71
2022/01/20 11:56:31;;;;;;;;;;;;;;;6.34;62.00;99868.78;4386107;32;20048;-71
2022/01/20 11:58:59;;;;;;;;;;;;;;;6.78;60.92;99860.78;4388080;32;19974;-71
2022/01/20 12:01:29;;;;;;;;;;;;;;;6.32;62.06;99870.47;4392643;32;20036;-71
2022/01/20 12:03:57;;;;;;;;;;;;;;;6.67;61.29;99863.03;4370152;32;20045;-71
2022/01/20 12:06:25;;;;;;;;;;;;;;;6.04;62.57;99859.25;4372283;32;19982;-71
2022/01/20 12:08:56;;;;;;;;;;;;;;;6.60;61.05;99843.06;4391859;32;20467;-71
2022/01/20 12:11:42;;;;;;;;;;;;;;;6.48;61.28;99847.00;4388217;32;19987;-71
2022/01/20 12:14:09;;;;;;;;;;;;;;;6.40;61.15;99838.16;4376509;32;19983;-71
2022/01/20 12:16:37;;;;;;;;;;;;;;;6.59;60.51;99838.75;4369721;32;20036;-71
2022/01/20 12:19:05;;;;;;;;;;;;;;;6.53;60.60;99842.00;4372401;32;20002;-75
2022/01/20 12:21:32;;;;;;;;;;;;;;;6.52;60.34;99838.56;4382120;32;20379;-72
2022/01/20 12:23:59;;;;;;;;;;;;;;;6.76;59.16;99832.44;4370618;32;20056;-71
2022/01/20 12:26:26;;;;;;;;;;;;;;;6.84;57.46;99835.25;4372751;32;20007;-72
2022/01/20 12:29:06;;;;;;;;;;;;;;;6.52;58.44;99833.41;4377391;32;19997;-72
2022/01/20 12:31:43;;;;;;;;;;;;;;;6.77;57.82;99823.91;4374046;32;20341;-72
2022/01/20 12:34:11;;;;;;;;;;;;;;;6.80;57.44;99808.56;4377255;32;19987;-71
2022/01/20 12:36:39;;;;;;;;;;;;;;;6.80;57.26;99808.56;4371280;32;20427;-73
2022/01/20 12:39:06;;;;;;;;;;;;;;;6.71;57.03;99803.13;4376681;32;20786;-72
2022/01/20 12:41:33;;;;;;;;;;;;;;;6.86;56.55;99803.59;4380739;32;19983;-71
2022/01/20 12:44:05;;;;;;;;;;;;;;;6.78;56.65;99799.91;4375977;32;20086;-72
2022/01/20 12:46:33;;;;;;;;;;;;;;;6.49;57.71;99802.47;4371830;32;20025;-72
2022/01/20 12:49:04;;;;;;;;;;;;;;;7.02;56.10;99809.19;4372197;32;20003;-72
2022/01/20 12:51:38;;;;;;;;;;;;;;;6.96;56.19;99795.34;4371071;32;20506;-72
2022/01/20 12:54:11;;;;;;;;;;;;;;;7.19;54.53;99789.97;4377925;32;20030;-70
2022/01/20 12:56:57;;;;;;;;;;;;;;;6.69;56.36;99784.19;4370970;32;20313;-71
2022/01/20 12:59:25;;;;;;;;;;;;;;;6.71;56.28;99792.84;4371688;32;19986;-72
2022/01/20 13:02:00;;;;;;;;;;;;;;;6.34;57.37;99785.66;4378253;32;19974;-71
2022/01/20 13:04:28;;;;;;;;;;;;;;;6.95;55.57;99778.13;4371319;32;20388;-72
2022/01/20 13:07:01;;;;;;;;;;;;;;;6.97;55.12;99773.91;4367192;32;19987;-72
2022/01/20 13:09:38;;;;;;;;;;;;;;;7.23;54.20;99768.62;4369626;32;20089;-70
2022/01/20 13:12:07;;;;;;;;;;;;;;;6.80;55.64;99767.41;4377334;32;20309;-70
2022/01/20 13:14:34;;;;;;;;;;;;;;;7.05;55.44;99774.16;4381494;32;20002;-70
2022/01/20 13:17:01;;;;;;;;;;;;;;;7.13;54.43;99758.91;4385956;32;19986;-73
2022/01/20 13:19:31;;;;;;;;;;;;;;;7.18;54.28;99771.09;4381747;32;20000;-71
2022/01/20 13:22:00;;;;;;;;;;;;;;;6.94;54.71;99766.09;4383827;32;19978;-71
2022/01/20 13:24:28;;;;;;;;;;;;;;;7.46;53.23;99752.09;4381246;32;19994;-71
2022/01/20 13:26:55;;;;;;;;;;;;;;;7.48;52.52;99753.88;4389304;32;20044;-72
2022/01/20 13:29:23;;;;;;;;;;;;;;;7.26;51.64;99732.69;4384523;32;20028;-70
2022/01/20 13:31:51;;;;;;;;;;;;;;;7.18;52.64;99723.91;4375182;32;19989;-70
2022/01/20 13:34:19;;;;;;;;;;;;;;;7.57;51.44;99713.78;4384595;32;19979;-70
2022/01/20 13:36:49;;;;;;;;;;;;;;;7.90;50.18;99736.94;4388984;32;19986;-70
2022/01/20 13:39:29;;;;;;;;;;;;;;;7.97;49.97;99726.78;4390064;32;19978;-69
2022/01/20 13:45:14;;;;;;;;;;;;;;;7.83;50.07;99740.19;4384894;32;20066;-71
2022/01/20 13:47:54;;;;;;;;;;;;;;;8.01;49.63;99744.06;4386521;32;20325;-71
2022/01/20 13:50:22;;;;;;;;;;;;;;;8.23;49.21;99743.78;4401646;32;19978;-71
2022/01/20 13:52:50;;;;;;;;;;;;;;;8.60;48.37;99739.47;4388491;32;19986;-71
2022/01/20 13:55:17;;;;;;;;;;;;;;;8.24;49.55;99724.88;4401792;32;20443;-71
2022/01/20 13:57:44;;;;;;;;;;;;;;;7.83;50.07;99716.16;4401323;32;19996;-72
2022/01/20 14:00:14;;;;;;;;;;;;;;;7.68;50.58;99722.62;4415167;32;20007;-70
2022/01/20 14:02:47;;;;;;;;;;;;;;;7.64;50.32;99714.81;4402302;32;20016;-71
2022/01/20 14:05:41;;;;;;;;;;;;;;;7.56;50.99;99712.03;4389077;32;20001;-70
2022/01/20 14:08:08;;;;;;;;;;;;;;;7.37;51.67;99730.38;4384374;32;20032;-72
2022/01/20 14:10:35;;;;;;;;;;;;;;;7.80;50.53;99734.97;4384456;32;20742;-72